Lauderhill, Florida
Current Conditions -  °F | °C
As of 6:53 PM on Friday 31 Oct 2014 (Local Time) from KFXE Reporting Station
Scattered Clouds Scattered Clouds  
Wind Chill: 80°   Ceiling: Unl
Heat Index: 82°   Visibility: 10mi
Dew Point: 65°   Wind: 6mph
Humidity: 60%   Direction: 310°NW
Pressure: 29.79"   Gusts: NA
Location:  26.2125°N, 80.2701°W
Report Text: KFXE 312253Z 31005KT 10SM FEW043 SCT075 27/18 A2979 RMK AO2 SLP091 T02670183
Loading
Personal Weather Stations






























Interactive Weather Map
Tropical Storm Tracking
New forecast layout! Learn more

10-Day Weather Forecast

Advertisements
Track Severe Weather on mobile